Time;durP1;ratioP1;P1;durP2;ratioP2;P2;SDS_P1;SDS_P2;PMS_P1;PMS_P2;Temp;Humidity;BMP_temperature;BMP_pressure;BME280_temperature;BME280_humidity;BME280_pressure;Samples;Min_cycle;Max_cycle;Signal;HPM_P1;HPM_P2
2021/11/24 00:00:29;;;;;;;0.50;0.50;;;2.50;99.90;;;;;;5114238;28;20026;-66
2021/11/24 00:02:55;;;;;;;0.40;0.40;;;2.40;99.90;;;;;;5114079;28;20047;-67
2021/11/24 00:05:21;;;;;;;0.55;0.50;;;2.40;99.90;;;;;;5114054;28;20066;-66
2021/11/24 00:07:47;;;;;;;0.60;0.60;;;2.30;99.90;;;;;;5113724;28;20060;-66
2021/11/24 00:10:15;;;;;;;0.50;0.50;;;2.10;99.90;;;;;;5113977;28;20056;-66
2021/11/24 00:12:41;;;;;;;0.50;0.50;;;2.10;99.90;;;;;;5113689;27;20491;-67
2021/11/24 00:15:07;;;;;;;0.50;0.50;;;2.10;99.90;;;;;;5111842;28;20031;-66
2021/11/24 00:17:33;;;;;;;0.60;0.60;;;2.00;99.90;;;;;;5099899;28;20043;-66
2021/11/24 00:19:59;;;;;;;0.68;0.60;;;1.90;99.90;;;;;;5098982;28;20068;-67
2021/11/24 00:22:25;;;;;;;0.40;0.40;;;1.80;99.90;;;;;;5114331;28;20019;-67
2021/11/24 00:24:51;;;;;;;0.50;0.50;;;1.90;99.90;;;;;;5113786;28;20030;-67
2021/11/24 00:27:17;;;;;;;0.50;0.50;;;1.80;99.90;;;;;;5113674;28;20073;-67
2021/11/24 00:29:43;;;;;;;0.60;0.60;;;1.80;99.90;;;;;;5113339;28;20077;-67
2021/11/24 00:32:08;;;;;;;0.60;0.60;;;1.70;99.90;;;;;;5113817;28;20103;-67
2021/11/24 00:34:34;;;;;;;0.50;0.50;;;1.60;99.90;;;;;;5113683;28;20107;-67
2021/11/24 00:37:00;;;;;;;0.50;0.50;;;1.50;99.90;;;;;;5113773;28;20578;-67
2021/11/24 00:39:26;;;;;;;0.50;0.50;;;1.50;99.90;;;;;;5113743;27;20523;-67
2021/11/24 00:41:52;;;;;;;0.75;0.45;;;1.50;99.90;;;;;;5113696;28;20367;-68
2021/11/24 00:44:18;;;;;;;0.52;0.52;;;1.50;99.90;;;;;;5111983;28;20023;-67
2021/11/24 00:46:44;;;;;;;0.70;0.70;;;1.40;99.90;;;;;;5113347;28;20092;-67
2021/11/24 00:49:10;;;;;;;0.60;0.60;;;1.40;99.90;;;;;;5113410;28;20027;-67
2021/11/24 00:51:36;;;;;;;0.50;0.50;;;1.40;99.90;;;;;;5113034;28;20411;-68
2021/11/24 00:54:03;;;;;;;0.50;0.50;;;1.40;99.90;;;;;;5112957;28;20034;-68
2021/11/24 00:56:29;;;;;;;0.70;0.70;;;1.40;99.90;;;;;;5112901;28;20036;-67
2021/11/24 00:58:54;;;;;;;0.60;0.60;;;1.30;99.90;;;;;;5113242;28;20080;-67
2021/11/24 01:01:20;;;;;;;0.50;0.50;;;1.30;99.90;;;;;;5113155;28;20047;-67
2021/11/24 01:03:46;;;;;;;0.50;0.50;;;1.20;99.90;;;;;;5113332;28;20062;-67
2021/11/24 01:06:12;;;;;;;0.50;0.50;;;1.20;99.90;;;;;;5113203;28;20425;-67
2021/11/24 01:08:38;;;;;;;0.60;0.60;;;1.20;99.90;;;;;;5113082;28;20035;-67
2021/11/24 01:11:04;;;;;;;0.50;0.40;;;1.10;99.90;;;;;;5112974;28;20387;-67
2021/11/24 01:13:31;;;;;;;0.52;0.52;;;1.10;99.90;;;;;;5104862;28;20383;-67
2021/11/24 01:15:56;;;;;;;0.40;0.40;;;1.10;99.90;;;;;;5092365;28;20051;-68
2021/11/24 01:18:23;;;;;;;0.45;0.45;;;1.10;99.90;;;;;;5092509;28;20059;-69
2021/11/24 01:20:49;;;;;;;0.65;0.50;;;1.00;99.90;;;;;;5092331;28;20404;-68
2021/11/24 01:23:16;;;;;;;0.52;0.50;;;1.00;99.90;;;;;;5111023;28;20031;-68
2021/11/24 01:25:42;;;;;;;1.05;0.70;;;1.00;99.90;;;;;;5112677;28;20107;-68
2021/11/24 01:28:08;;;;;;;0.52;0.52;;;1.00;99.90;;;;;;5111076;28;20039;-66
2021/11/24 01:30:34;;;;;;;0.88;0.70;;;1.00;99.90;;;;;;5112254;28;20015;-66
2021/11/24 01:33:00;;;;;;;0.52;0.52;;;1.00;99.90;;;;;;5112618;28;20034;-66
2021/11/24 01:35:26;;;;;;;0.70;0.70;;;0.90;99.90;;;;;;5112440;28;20027;-66
2021/11/24 01:37:52;;;;;;;0.50;0.50;;;0.90;99.90;;;;;;5112255;28;20019;-66
2021/11/24 01:40:18;;;;;;;0.60;0.60;;;0.90;99.90;;;;;;5112154;28;20514;-66
2021/11/24 01:42:44;;;;;;;0.60;0.60;;;0.90;99.90;;;;;;5111042;28;20031;-66
2021/11/24 01:45:12;;;;;;;0.52;0.52;;;0.90;99.90;;;;;;5112221;28;20016;-66
2021/11/24 01:47:37;;;;;;;0.60;0.60;;;0.80;99.90;;;;;;5112158;28;20054;-66
2021/11/24 01:50:05;;;;;;;0.60;0.60;;;0.80;99.90;;;;;;5109636;28;20572;-66
2021/11/24 01:52:32;;;;;;;0.50;0.50;;;0.80;99.90;;;;;;5106856;28;20091;-66
2021/11/24 01:54:58;;;;;;;0.50;0.50;;;0.80;99.90;;;;;;5112202;28;20447;-66
2021/11/24 01:57:27;;;;;;;0.50;0.50;;;0.70;99.90;;;;;;5112204;28;20067;-66
2021/11/24 01:59:54;;;;;;;0.52;0.52;;;0.70;99.90;;;;;;5111913;28;20107;-67
2021/11/24 02:02:20;;;;;;;0.52;0.52;;;0.70;99.90;;;;;;5112045;28;20063;-67
2021/11/24 02:04:45;;;;;;;0.50;0.50;;;0.70;99.90;;;;;;5111696;28;20051;-67
2021/11/24 02:07:11;;;;;;;0.60;0.60;;;0.60;99.90;;;;;;5111954;28;20032;-66
2021/11/24 02:09:37;;;;;;;0.50;0.50;;;0.60;99.90;;;;;;5112047;28;20023;-66
2021/11/24 02:12:03;;;;;;;0.60;0.60;;;0.60;99.90;;;;;;5112282;28;20364;-66
2021/11/24 02:14:29;;;;;;;1.25;0.60;;;0.60;99.90;;;;;;5112022;28;20070;-67
2021/11/24 02:16:55;;;;;;;1.20;0.70;;;0.60;99.90;;;;;;5112016;28;20070;-67
2021/11/24 02:19:28;;;;;;;0.68;0.60;;;0.70;99.90;;;;;;5111959;28;20084;-66
2021/11/24 02:21:54;;;;;;;0.60;0.60;;;0.70;99.90;;;;;;5112188;28;20028;-66
2021/11/24 02:53:25;;;;;;;0.70;0.70;;;0.40;99.90;;;;;;5115777;27;20533;-66
2021/11/24 02:55:52;;;;;;;0.60;0.60;;;0.40;99.90;;;;;;5115454;28;20023;-66
2021/11/24 02:58:18;;;;;;;2.53;1.77;;;0.40;99.90;;;;;;5114326;28;20050;-66
2021/11/24 03:00:44;;;;;;;1.92;0.60;;;0.40;99.90;;;;;;5114994;27;20459;-66
2021/11/24 03:03:09;;;;;;;0.50;0.50;;;0.40;99.90;;;;;;5115666;28;20020;-66
2021/11/24 03:05:36;;;;;;;0.70;0.70;;;0.40;99.90;;;;;;5115090;28;20463;-66
2021/11/24 03:08:02;;;;;;;0.60;0.60;;;0.30;99.90;;;;;;5115638;28;20429;-66
2021/11/24 03:10:28;;;;;;;0.55;0.55;;;0.30;99.90;;;;;;5115106;28;20412;-66
2021/11/24 03:12:54;;;;;;;0.80;0.80;;;0.30;99.90;;;;;;5115349;28;20177;-66
2021/11/24 03:15:20;;;;;;;0.63;0.60;;;0.20;99.90;;;;;;5115088;28;20030;-66
2021/11/24 03:17:46;;;;;;;0.70;0.70;;;0.30;99.90;;;;;;5115032;28;20019;-66
2021/11/24 03:20:13;;;;;;;0.63;0.50;;;0.20;99.90;;;;;;5115193;28;20023;-66
2021/11/24 03:22:39;;;;;;;0.60;0.60;;;0.20;99.90;;;;;;5114850;28;20471;-66
2021/11/24 03:25:07;;;;;;;0.60;0.60;;;0.20;99.90;;;;;;5115141;28;20028;-66
2021/11/24 03:27:36;;;;;;;0.60;0.60;;;0.30;99.90;;;;;;5115002;28;20039;-66
2021/11/24 03:30:06;;;;;;;1.67;0.68;;;0.30;99.90;;;;;;5114630;28;20074;-66
2021/11/24 03:32:32;;;;;;;0.60;0.60;;;0.30;99.90;;;;;;5114857;28;20031;-66
2021/11/24 03:34:57;;;;;;;0.50;0.50;;;0.20;99.90;;;;;;5114707;28;20027;-66
2021/11/24 03:37:24;;;;;;;0.70;0.70;;;0.10;99.90;;;;;;5114701;28;20028;-66
2021/11/24 03:39:51;;;;;;;1.05;0.70;;;0.10;99.90;;;;;;5114450;28;20031;-66
2021/11/24 03:42:18;;;;;;;0.60;0.60;;;0.10;99.90;;;;;;5114938;28;20088;-66
2021/11/24 03:44:44;;;;;;;0.60;0.60;;;0.10;99.90;;;;;;5114252;28;20054;-66
2021/11/24 03:47:09;;;;;;;0.50;0.50;;;0.10;99.90;;;;;;5113390;28;20490;-66
2021/11/24 03:49:35;;;;;;;0.60;0.60;;;0.10;99.90;;;;;;5113098;28;20048;-66
2021/11/24 03:52:01;;;;;;;0.60;0.50;;;0.10;99.90;;;;;;5114350;28;20026;-66
2021/11/24 03:54:27;;;;;;;0.60;0.60;;;0.10;99.90;;;;;;5114263;28;20031;-66
2021/11/24 03:56:53;;;;;;;1.05;0.70;;;0.10;99.90;;;;;;5114243;28;20445;-66
2021/11/24 03:59:18;;;;;;;0.60;0.60;;;0.00;99.90;;;;;;5109386;28;20456;-66
2021/11/24 04:01:44;;;;;;;0.50;0.50;;;0.00;99.90;;;;;;5105342;28;20047;-66
2021/11/24 04:04:10;;;;;;;0.55;0.55;;;0.00;99.90;;;;;;5100085;28;20480;-66
2021/11/24 04:06:36;;;;;;;0.60;0.60;;;-0.10;99.90;;;;;;5114108;27;20047;-66
2021/11/24 04:09:02;;;;;;;0.68;0.65;;;0.00;99.90;;;;;;5114111;28;20040;-67
2021/11/24 04:11:28;;;;;;;1.90;0.80;;;-0.10;99.90;;;;;;5107039;28;20471;-66
2021/11/24 04:13:53;;;;;;;0.50;0.50;;;-0.10;99.90;;;;;;5107095;28;20080;-66
2021/11/24 04:16:20;;;;;;;0.57;0.57;;;-0.10;99.90;;;;;;5114085;28;20020;-66
2021/11/24 04:18:48;;;;;;;0.60;0.60;;;-0.10;99.90;;;;;;5113815;27;20050;-66
2021/11/24 04:21:14;;;;;;;0.50;0.50;;;-0.10;99.90;;;;;;5113937;28;20024;-66
2021/11/24 04:23:40;;;;;;;0.50;0.50;;;-0.20;99.90;;;;;;5113860;28;20026;-66
2021/11/24 04:26:06;;;;;;;0.60;0.60;;;-0.20;99.90;;;;;;5113735;28;20027;-66
2021/11/24 04:28:32;;;;;;;0.40;0.40;;;-0.20;99.90;;;;;;5113575;28;20036;-66
2021/11/24 04:30:58;;;;;;;1.02;0.60;;;-0.20;99.90;;;;;;5113628;28;20059;-67
2021/11/24 04:33:23;;;;;;;0.50;0.50;;;-0.20;99.90;;;;;;5112254;28;20037;-67
2021/11/24 04:35:49;;;;;;;0.73;0.60;;;-0.10;99.90;;;;;;5113475;28;20054;-67
2021/11/24 04:38:15;;;;;;;0.52;0.52;;;-0.20;99.90;;;;;;5113475;28;20085;-67
2021/11/24 04:40:41;;;;;;;0.50;0.50;;;-0.20;99.90;;;;;;5113689;28;20053;-66
2021/11/24 04:43:10;;;;;;;0.52;0.52;;;-0.20;99.90;;;;;;5113533;28;20028;-66
2021/11/24 04:45:36;;;;;;;1.00;0.68;;;-0.30;99.90;;;;;;5113464;28;20035;-66
2021/11/24 04:48:02;;;;;;;0.70;0.70;;;-0.30;99.90;;;;;;5113251;27;20483;-66
2021/11/24 04:50:27;;;;;;;2.20;1.10;;;-0.30;99.90;;;;;;5099295;28;20447;-67
2021/11/24 04:52:53;;;;;;;3.92;1.20;;;-0.30;99.90;;;;;;5113512;27;20024;-66
2021/11/24 04:55:19;;;;;;;1.48;0.98;;;-0.30;99.90;;;;;;5113497;28;20383;-66
2021/11/24 04:57:44;;;;;;;4.15;2.50;;;-0.30;99.90;;;;;;5112905;28;20055;-66
2021/11/24 05:00:17;;;;;;;2.60;1.58;;;-0.30;99.90;;;;;;5100646;28;20028;-66
2021/11/24 05:02:43;;;;;;;1.05;0.70;;;-0.30;99.90;;;;;;5111736;28;20027;-67
2021/11/24 05:05:09;;;;;;;0.80;0.80;;;-0.40;99.90;;;;;;5112873;28;20023;-67
2021/11/24 05:07:35;;;;;;;1.65;0.70;;;-0.40;99.90;;;;;;5112712;28;20019;-66
2021/11/24 05:10:02;;;;;;;0.80;0.73;;;-0.40;99.90;;;;;;5113004;28;20031;-66
2021/11/24 05:12:28;;;;;;;1.85;0.70;;;-0.50;99.90;;;;;;5112778;28;20024;-66
2021/11/24 05:14:54;;;;;;;0.85;0.70;;;-0.40;99.90;;;;;;5112640;28;20031;-65
2021/11/24 05:17:24;;;;;;;1.10;0.60;;;-0.50;99.90;;;;;;5112749;28;20032;-67
2021/11/24 05:19:51;;;;;;;0.57;0.50;;;-0.40;99.90;;;;;;5098271;28;20102;-66
2021/11/24 05:22:18;;;;;;;0.60;0.60;;;-0.50;99.90;;;;;;5112957;28;20070;-67
2021/11/24 05:24:44;;;;;;;0.60;0.60;;;-0.50;99.90;;;;;;5112551;28;20044;-67
2021/11/24 05:27:10;;;;;;;0.68;0.68;;;-0.50;99.90;;;;;;5112815;28;20035;-66
2021/11/24 05:29:36;;;;;;;0.50;0.50;;;-0.50;99.90;;;;;;5112373;28;20036;-67
2021/11/24 05:32:02;;;;;;;0.60;0.60;;;-0.50;99.90;;;;;;5112449;28;20027;-66
2021/11/24 05:34:27;;;;;;;0.60;0.60;;;-0.50;99.90;;;;;;5111099;28;20019;-66
2021/11/24 05:36:53;;;;;;;0.40;0.40;;;-0.50;99.90;;;;;;5112264;28;20060;-65
2021/11/24 05:39:19;;;;;;;0.65;0.65;;;-0.50;99.90;;;;;;5112052;28;20360;-68
2021/11/24 05:41:45;;;;;;;0.80;0.80;;;-0.30;99.90;;;;;;5111880;28;20035;-70
2021/11/24 05:44:26;;;;;;;0.68;0.68;;;-0.10;99.90;;;;;;5110594;28;20019;-67
2021/11/24 05:46:57;;;;;;;0.57;0.57;;;-0.10;99.90;;;;;;5107847;28;20028;-67
2021/11/24 05:49:25;;;;;;;0.70;0.70;;;-0.30;99.90;;;;;;5096157;28;20046;-70
2021/11/24 05:51:52;;;;;;;0.93;0.60;;;-0.30;99.90;;;;;;5097093;28;20031;-73
2021/11/24 05:54:18;;;;;;;0.80;0.68;;;-0.40;99.90;;;;;;5097883;28;20487;-70
2021/11/24 05:56:45;;;;;;;0.68;0.57;;;-0.40;99.90;;;;;;5097545;28;20093;-68
2021/11/24 05:59:12;;;;;;;2.33;0.70;;;-0.40;99.90;;;;;;5108027;28;20031;-68
2021/11/24 06:01:38;;;;;;;0.60;0.60;;;0.30;99.90;;;;;;5094706;28;20084;-68
2021/11/24 06:04:05;;;;;;;0.50;0.50;;;0.40;99.90;;;;;;5099998;28;20027;-67
2021/11/24 06:06:32;;;;;;;0.60;0.60;;;0.10;99.90;;;;;;5092780;28;20025;-68
2021/11/24 06:08:58;;;;;;;0.60;0.60;;;-0.10;99.90;;;;;;5097597;28;20128;-68
2021/11/24 06:11:24;;;;;;;0.70;0.52;;;-0.20;99.90;;;;;;5111871;28;20019;-68
2021/11/24 06:13:49;;;;;;;0.60;0.60;;;-0.30;99.90;;;;;;5108221;28;20487;-68
2021/11/24 06:16:15;;;;;;;0.63;0.63;;;-0.30;99.90;;;;;;5106569;28;20023;-68
2021/11/24 06:18:41;;;;;;;0.85;0.52;;;-0.30;99.90;;;;;;5111716;28;20028;-68
2021/11/24 06:21:07;;;;;;;0.52;0.52;;;-0.40;99.90;;;;;;5111610;28;20012;-68
2021/11/24 06:23:38;;;;;;;1.35;0.63;;;-0.40;99.90;;;;;;5111766;28;20379;-68
2021/11/24 06:26:04;;;;;;;0.50;0.50;;;-0.50;99.90;;;;;;5111903;28;20026;-68
2021/11/24 06:28:30;;;;;;;0.57;0.57;;;-0.30;99.90;;;;;;5112049;28;20028;-71
2021/11/24 06:30:55;;;;;;;0.70;0.70;;;-0.30;99.90;;;;;;5111779;28;20375;-67
2021/11/24 06:33:21;;;;;;;0.60;0.60;;;-0.40;99.90;;;;;;5111875;28;20486;-67
2021/11/24 06:35:47;;;;;;;0.73;0.60;;;-0.50;99.90;;;;;;5111823;28;20024;-67
2021/11/24 06:38:12;;;;;;;0.77;0.77;;;-0.60;99.90;;;;;;5111533;28;20051;-67
2021/11/24 06:40:38;;;;;;;0.60;0.60;;;-0.60;99.90;;;;;;5111622;28;20101;-66
2021/11/24 06:43:04;;;;;;;0.52;0.52;;;-0.70;99.90;;;;;;5111516;28;20024;-66
2021/11/24 06:45:30;;;;;;;0.63;0.63;;;-0.70;99.90;;;;;;5110347;28;20436;-66
2021/11/24 06:47:55;;;;;;;0.65;0.65;;;-0.80;99.90;;;;;;5111283;28;20031;-66
2021/11/24 06:50:22;;;;;;;0.70;0.70;;;-0.80;99.90;;;;;;5110329;28;20038;-66
2021/11/24 06:52:49;;;;;;;0.70;0.70;;;-0.80;99.90;;;;;;5111465;28;20027;-66
2021/11/24 06:55:14;;;;;;;0.95;0.70;;;-0.80;99.90;;;;;;5111363;28;20542;-66
2021/11/24 06:57:41;;;;;;;0.60;0.60;;;-0.80;99.90;;;;;;5100739;28;20069;-67
2021/11/24 07:00:08;;;;;;;0.60;0.60;;;-0.80;99.90;;;;;;5111302;28;20015;-66
2021/11/24 07:02:34;;;;;;;0.60;0.60;;;-0.70;99.90;;;;;;5111276;28;20023;-69
2021/11/24 07:05:00;;;;;;;0.60;0.60;;;-0.60;99.90;;;;;;5111457;28;20028;-66
2021/11/24 07:07:25;;;;;;;0.60;0.60;;;-0.20;99.90;;;;;;5096830;28;20025;-66
2021/11/24 07:09:51;;;;;;;0.50;0.50;;;-0.20;99.90;;;;;;5105451;28;20035;-66
2021/11/24 07:12:19;;;;;;;0.50;0.50;;;-0.30;99.90;;;;;;5094522;28;20020;-67
2021/11/24 07:14:45;;;;;;;0.60;0.60;;;0.00;99.90;;;;;;5111143;28;20062;-69
2021/11/24 07:17:11;;;;;;;0.50;0.50;;;0.10;99.90;;;;;;5109843;28;20052;-67
2021/11/24 07:19:38;;;;;;;1.40;0.60;;;-0.20;99.90;;;;;;5103830;28;20050;-67
2021/11/24 07:22:04;;;;;;;4.88;1.00;;;-0.30;99.90;;;;;;5093117;28;20020;-67
2021/11/24 07:24:30;;;;;;;1.00;0.80;;;-0.50;99.90;;;;;;5096813;28;20146;-67
2021/11/24 07:26:56;;;;;;;0.85;0.80;;;-0.60;99.90;;;;;;5098238;28;20110;-67
2021/11/24 07:29:22;;;;;;;1.13;1.00;;;-0.80;99.90;;;;;;5095260;28;20452;-66
2021/11/24 07:31:48;;;;;;;1.52;1.02;;;-0.90;99.90;;;;;;5093820;28;20035;-67
2021/11/24 07:34:14;;;;;;;0.93;0.90;;;-1.00;99.90;;;;;;5096594;28;20380;-67
2021/11/24 07:36:40;;;;;;;0.82;0.82;;;-1.00;99.90;;;;;;5099843;28;20021;-69
2021/11/24 07:39:06;;;;;;;1.00;0.90;;;-1.10;99.90;;;;;;5100204;28;20464;-68
2021/11/24 07:41:32;;;;;;;1.27;0.80;;;-1.20;99.90;;;;;;5097799;28;20061;-66
2021/11/24 07:43:58;;;;;;;0.80;0.80;;;-1.30;99.90;;;;;;5096782;28;20028;-68
2021/11/24 07:46:23;;;;;;;0.80;0.77;;;-1.40;99.90;;;;;;5096083;28;20089;-69
2021/11/24 07:48:49;;;;;;;2.58;0.80;;;-1.50;99.90;;;;;;5099928;28;20042;-68
2021/11/24 07:51:18;;;;;;;1.80;1.13;;;-1.60;99.90;;;;;;5113806;28;20024;-68
2021/11/24 07:53:46;;;;;;;4.75;1.95;;;-1.60;99.90;;;;;;5114340;28;20104;-68
2021/11/24 07:56:12;;;;;;;3.13;1.77;;;-1.70;99.90;;;;;;5113644;28;20039;-67
2021/11/24 07:58:40;;;;;;;3.58;1.83;;;-1.80;99.90;;;;;;5114162;28;20023;-68
2021/11/24 08:01:10;;;;;;;3.35;2.10;;;-1.80;99.90;;;;;;5113975;28;20019;-67
2021/11/24 08:03:36;;;;;;;3.08;2.40;;;-1.80;99.90;;;;;;5113771;28;20072;-67
2021/11/24 08:06:02;;;;;;;3.08;2.00;;;-1.80;99.90;;;;;;5113859;28;20012;-67
2021/11/24 08:08:28;;;;;;;3.95;2.33;;;-1.80;99.90;;;;;;5096076;28;20032;-67
2021/11/24 08:10:53;;;;;;;7.43;2.70;;;-1.80;99.90;;;;;;5109950;28;20023;-67
2021/11/24 08:13:21;;;;;;;3.33;2.20;;;-1.80;99.90;;;;;;5106190;28;20464;-67
2021/11/24 08:15:47;;;;;;;4.95;2.15;;;-1.80;99.90;;;;;;5108188;28;20444;-66
2021/11/24 08:18:14;;;;;;;2.97;1.48;;;-1.80;99.90;;;;;;5113788;28;20106;-66
2021/11/24 08:20:39;;;;;;;1.65;1.15;;;-1.80;99.90;;;;;;5114014;28;20046;-66
2021/11/24 08:23:05;;;;;;;1.83;1.48;;;-1.80;99.90;;;;;;5113849;28;20031;-66
2021/11/24 08:25:31;;;;;;;2.85;1.80;;;-1.80;99.90;;;;;;5114042;28;20046;-65
2021/11/24 08:27:57;;;;;;;1.33;1.20;;;-1.80;99.90;;;;;;5113303;28;20433;-66
2021/11/24 08:30:23;;;;;;;1.40;1.08;;;-1.80;99.90;;;;;;5113549;28;20028;-67
2021/11/24 08:32:51;;;;;;;1.15;1.00;;;-2.00;99.90;;;;;;5113238;28;20077;-65
2021/11/24 08:35:19;;;;;;;0.88;0.88;;;-2.00;99.90;;;;;;5105973;28;20056;-65
2021/11/24 08:37:45;;;;;;;1.73;1.25;;;-2.00;99.90;;;;;;5107685;28;20028;-66
2021/11/24 08:40:11;;;;;;;2.63;1.50;;;-2.00;99.90;;;;;;5113397;28;20019;-66
2021/11/24 08:42:38;;;;;;;1.75;1.38;;;-1.70;99.90;;;;;;5113406;28;20556;-65
2021/11/24 08:45:06;;;;;;;2.15;1.50;;;-1.60;99.90;;;;;;5111764;28;20035;-65
2021/11/24 08:47:32;;;;;;;1.45;1.25;;;-1.40;99.90;;;;;;5113128;28;20055;-68
2021/11/24 08:49:58;;;;;;;2.53;1.45;;;-1.50;99.90;;;;;;5113092;28;20455;-66
2021/11/24 08:52:24;;;;;;;0.90;0.90;;;-1.60;99.90;;;;;;5111892;28;20015;-66
2021/11/24 08:54:51;;;;;;;2.63;1.80;;;-1.70;99.90;;;;;;5110159;28;20485;-65
2021/11/24 08:57:17;;;;;;;2.72;1.60;;;-1.70;99.90;;;;;;5111578;28;20050;-66
2021/11/24 08:59:43;;;;;;;6.72;3.38;;;-1.80;99.90;;;;;;5111688;28;20058;-66
2021/11/24 09:02:09;;;;;;;1.95;1.38;;;-1.90;99.90;;;;;;5112816;28;20023;-67
2021/11/24 09:04:35;;;;;;;13.52;6.07;;;-1.90;99.90;;;;;;5113300;28;20085;-66
2021/11/24 09:07:01;;;;;;;8.40;3.55;;;-2.00;99.90;;;;;;5112676;28;20791;-66
2021/11/24 09:09:27;;;;;;;1.67;1.55;;;-2.00;99.90;;;;;;5111886;28;20093;-66
2021/11/24 09:11:53;;;;;;;3.05;2.00;;;-2.00;99.90;;;;;;5098986;28;20373;-66
2021/11/24 09:14:19;;;;;;;4.07;2.70;;;-1.90;99.90;;;;;;5109304;28;20024;-65
2021/11/24 09:16:46;;;;;;;4.85;3.10;;;-1.90;99.90;;;;;;5108835;28;20086;-66
2021/11/24 09:19:11;;;;;;;1.33;1.23;;;-1.80;99.90;;;;;;5112538;28;20020;-66
2021/11/24 09:21:37;;;;;;;2.03;1.20;;;-1.80;99.90;;;;;;5112863;28;20111;-66
2021/11/24 09:24:05;;;;;;;1.17;0.90;;;-1.60;99.90;;;;;;5112474;28;20015;-66
2021/11/24 09:26:49;;;;;;;1.08;1.08;;;-1.60;99.90;;;;;;5112280;28;20020;-66
2021/11/24 09:29:15;;;;;;;1.52;0.93;;;-1.70;99.90;;;;;;5112320;28;20039;-66
2021/11/24 09:31:41;;;;;;;3.38;1.10;;;-1.70;99.90;;;;;;5112527;28;20392;-66
2021/11/24 09:34:07;;;;;;;1.98;1.02;;;-1.80;99.90;;;;;;5112372;28;20043;-66
2021/11/24 09:36:34;;;;;;;1.52;1.30;;;-1.40;99.90;;;;;;5112254;28;20508;-65
2021/11/24 09:39:01;;;;;;;1.58;0.98;;;-1.30;99.90;;;;;;5112251;28;20031;-65
2021/11/24 09:41:29;;;;;;;2.15;0.90;;;-1.30;99.90;;;;;;5112613;28;20157;-66
2021/11/24 09:43:55;;;;;;;0.80;0.80;;;-1.30;99.90;;;;;;5102928;28;20036;-65
2021/11/24 09:46:24;;;;;;;0.70;0.70;;;-1.30;99.90;;;;;;5107495;28;20061;-66
2021/11/24 09:48:50;;;;;;;3.25;0.98;;;-1.40;99.90;;;;;;5111259;28;20376;-66
2021/11/24 09:51:18;;;;;;;2.47;0.75;;;-1.20;99.90;;;;;;5112200;28;20023;-66
2021/11/24 09:53:45;;;;;;;1.45;0.70;;;-1.10;99.90;;;;;;5112066;28;20584;-66
2021/11/24 09:56:12;;;;;;;0.85;0.77;;;-1.10;99.90;;;;;;5111780;28;20456;-66
2021/11/24 09:58:38;;;;;;;3.15;0.88;;;-1.10;99.90;;;;;;5099119;28;20061;-66
2021/11/24 10:01:04;;;;;;;0.95;0.80;;;-1.20;99.90;;;;;;5091312;28;20028;-66
2021/11/24 10:03:31;;;;;;;0.82;0.70;;;-1.20;99.90;;;;;;5100215;28;20107;-63
2021/11/24 10:05:57;;;;;;;1.25;0.80;;;-1.30;99.90;;;;;;5097373;28;20049;-66
2021/11/24 10:08:24;;;;;;;0.80;0.80;;;-1.20;99.90;;;;;;5093052;28;20065;-63
2021/11/24 10:10:50;;;;;;;0.77;0.70;;;-1.20;99.90;;;;;;5092805;28;20114;-63
2021/11/24 10:13:16;;;;;;;0.70;0.70;;;-1.10;99.90;;;;;;5102946;28;20018;-63
2021/11/24 10:15:52;;;;;;;0.80;0.80;;;-1.10;99.90;;;;;;5097669;28;20038;-63
2021/11/24 10:18:19;;;;;;;0.80;0.80;;;-1.10;99.90;;;;;;5091014;28;20024;-64
2021/11/24 10:20:56;;;;;;;1.60;0.90;;;-1.10;99.90;;;;;;5089855;28;20020;-62
2021/11/24 10:23:47;;;;;;;1.00;0.90;;;-1.10;99.90;;;;;;5098159;28;20031;-63
2021/11/24 10:26:27;;;;;;;0.85;0.70;;;-1.20;99.90;;;;;;5111294;28;20024;-65
2021/11/24 10:29:01;;;;;;;1.50;0.80;;;-1.20;99.90;;;;;;5111229;28;20123;-66
2021/11/24 10:31:28;;;;;;;1.40;0.73;;;-1.20;99.90;;;;;;5111410;28;20098;-66
2021/11/24 10:33:56;;;;;;;0.77;0.77;;;-1.20;99.90;;;;;;5111327;28;20020;-65
2021/11/24 10:36:22;;;;;;;0.93;0.70;;;-1.20;99.90;;;;;;5111335;28;20031;-65
2021/11/24 10:38:51;;;;;;;0.63;0.63;;;-0.30;99.90;;;;;;5111534;28;20019;-65
2021/11/24 10:41:36;;;;;;;0.73;0.73;;;0.00;99.90;;;;;;5110013;28;20038;-65
2021/11/24 10:44:03;;;;;;;0.73;0.73;;;-0.30;99.90;;;;;;5108560;28;20015;-64
2021/11/24 10:46:31;;;;;;;0.70;0.70;;;-0.50;99.90;;;;;;5111205;28;20061;-64
2021/11/24 10:49:10;;;;;;;1.90;1.67;;;-0.60;99.90;;;;;;5111062;28;20035;-64
2021/11/24 10:51:41;;;;;;;2.60;2.25;;;-0.80;99.90;;;;;;5106621;28;20092;-64
2021/11/24 10:54:14;;;;;;;2.35;2.15;;;-0.90;99.90;;;;;;5109957;28;20115;-64
2021/11/24 10:57:00;;;;;;;1.80;1.65;;;-1.10;99.90;;;;;;5111027;28;20063;-64
2021/11/24 10:59:27;;;;;;;1.55;1.20;;;-1.10;99.90;;;;;;5113047;28;20012;-64
2021/11/24 11:01:55;;;;;;;1.30;1.20;;;-1.10;99.90;;;;;;5115215;28;20491;-64
2021/11/24 11:04:20;;;;;;;1.40;1.30;;;-1.00;99.90;;;;;;5115223;28;20011;-64
2021/11/24 11:06:46;;;;;;;3.20;1.00;;;-1.00;99.90;;;;;;5115384;28;20030;-64
2021/11/24 11:09:12;;;;;;;3.85;1.00;;;-1.10;99.90;;;;;;5113836;28;20032;-65
2021/11/24 11:11:39;;;;;;;1.13;0.70;;;-1.10;99.90;;;;;;5105457;28;20020;-64
2021/11/24 11:14:19;;;;;;;3.08;0.95;;;-1.20;99.90;;;;;;5104212;28;20085;-64
2021/11/24 11:16:48;;;;;;;0.82;0.70;;;-1.20;99.90;;;;;;5115241;28;20016;-64
2021/11/24 11:19:45;;;;;;;0.97;0.97;;;-1.40;99.90;;;;;;5114766;28;20020;-64
2021/11/24 11:22:19;;;;;;;1.10;0.80;;;-1.40;99.90;;;;;;5112640;28;20261;-64
2021/11/24 11:24:45;;;;;;;0.70;0.70;;;-1.40;99.90;;;;;;5113210;28;20041;-64
2021/11/24 11:27:10;;;;;;;0.80;0.80;;;-1.30;99.90;;;;;;5114660;28;20064;-64
2021/11/24 11:29:37;;;;;;;0.60;0.60;;;-1.30;99.90;;;;;;5114457;28;20120;-64
2021/11/24 11:32:06;;;;;;;0.80;0.80;;;-1.30;99.90;;;;;;5113210;28;20022;-64
2021/11/24 11:34:32;;;;;;;1.23;1.00;;;-1.30;99.90;;;;;;5114930;28;20035;-64
2021/11/24 11:36:58;;;;;;;3.63;1.10;;;-1.30;99.90;;;;;;5112032;28;20400;-64
2021/11/24 11:39:25;;;;;;;3.38;1.10;;;-1.30;99.90;;;;;;5107427;28;20019;-64
2021/11/24 11:41:51;;;;;;;1.17;1.08;;;-1.40;99.90;;;;;;5113206;28;20035;-64
2021/11/24 11:44:19;;;;;;;1.33;1.08;;;-1.40;99.90;;;;;;5107277;28;20018;-64
2021/11/24 11:46:50;;;;;;;1.30;0.95;;;-1.40;99.90;;;;;;5114127;28;20027;-64
2021/11/24 11:49:19;;;;;;;0.98;0.90;;;-1.50;99.90;;;;;;5114331;28;20035;-65
2021/11/24 11:51:47;;;;;;;1.45;0.98;;;-1.50;99.90;;;;;;5104514;28;20024;-64
2021/11/24 11:54:32;;;;;;;2.72;0.95;;;-1.60;99.90;;;;;;5111962;28;20590;-66
2021/11/24 11:57:01;;;;;;;0.80;0.80;;;-1.60;99.90;;;;;;5104454;28;20039;-67
2021/11/24 11:59:35;;;;;;;0.70;0.65;;;-1.60;99.90;;;;;;5114163;28;20034;-67
2021/11/24 12:02:05;;;;;;;0.90;0.90;;;-1.60;99.90;;;;;;5114172;28;20024;-67
2021/11/24 12:04:37;;;;;;;2.17;0.90;;;-1.60;99.90;;;;;;5114462;28;20024;-67
2021/11/24 12:07:04;;;;;;;1.38;0.95;;;-1.60;99.90;;;;;;5114076;28;20027;-67
2021/11/24 12:09:32;;;;;;;1.08;0.93;;;-1.60;99.90;;;;;;5114241;28;20379;-67
2021/11/24 12:12:12;;;;;;;2.78;0.80;;;-1.60;99.90;;;;;;5113091;28;20020;-67
2021/11/24 12:14:58;;;;;;;2.70;0.98;;;-1.60;99.90;;;;;;5113806;28;20039;-65
2021/11/24 12:17:30;;;;;;;1.17;0.90;;;-1.60;99.90;;;;;;5113896;28;20026;-65
2021/11/24 12:20:11;;;;;;;4.20;0.98;;;-1.60;99.90;;;;;;5100137;28;20030;-64
2021/11/24 12:25:20;;;;;;;1.10;0.82;;;-1.60;99.90;;;;;;5095830;28;20028;-65
2021/11/24 12:27:58;;;;;;;1.30;1.20;;;-1.70;99.90;;;;;;5093618;28;20032;-65
2021/11/24 12:30:40;;;;;;;1.00;0.90;;;-1.70;99.90;;;;;;5093417;28;20024;-65
2021/11/24 12:33:21;;;;;;;2.35;1.00;;;-1.80;99.90;;;;;;5095869;28;20023;-65
2021/11/24 12:36:08;;;;;;;1.50;1.10;;;-1.80;99.90;;;;;;5104972;28;20102;-66
2021/11/24 12:38:50;;;;;;;1.70;1.27;;;-1.80;99.90;;;;;;5112299;28;20032;-66
2021/11/24 12:41:18;;;;;;;1.75;1.13;;;-1.90;99.90;;;;;;5103999;27;20036;-65
2021/11/24 12:43:51;;;;;;;1.08;1.00;;;-2.00;99.90;;;;;;5112130;28;20058;-68
2021/11/24 12:46:21;;;;;;;1.50;1.40;;;-1.40;99.90;;;;;;5111887;28;20016;-66
2021/11/24 12:48:57;;;;;;;1.95;1.20;;;0.40;99.90;;;;;;5107907;28;20118;-65
2021/11/24 12:51:33;;;;;;;1.85;1.30;;;0.10;99.90;;;;;;5108243;28;20032;-65
2021/11/24 12:54:12;;;;;;;3.97;1.50;;;-0.50;99.90;;;;;;5108910;28;20427;-66
2021/11/24 12:56:46;;;;;;;2.90;1.55;;;-0.90;99.90;;;;;;5107696;28;20043;-65
2021/11/24 12:59:14;;;;;;;2.20;1.60;;;-1.20;99.90;;;;;;5112880;28;20027;-65
2021/11/24 13:01:44;;;;;;;1.95;1.42;;;-1.40;99.90;;;;;;5112996;28;20084;-65
2021/11/24 13:04:12;;;;;;;1.13;1.02;;;-1.60;99.90;;;;;;5112634;28;20020;-65
2021/11/24 13:06:55;;;;;;;1.15;0.95;;;-1.80;99.90;;;;;;5112609;28;20028;-65
2021/11/24 13:09:27;;;;;;;1.67;1.00;;;-1.90;99.90;;;;;;5112876;28;20043;-66
2021/11/24 13:12:00;;;;;;;1.20;0.90;;;-2.00;99.90;;;;;;5112367;28;20034;-65
2021/11/24 13:14:35;;;;;;;0.93;0.90;;;-2.00;99.90;;;;;;5108566;28;20055;-66
2021/11/24 13:17:07;;;;;;;4.28;0.90;;;-2.10;99.90;;;;;;5110348;28;20027;-66
2021/11/24 13:19:55;;;;;;;0.60;0.60;;;-1.80;99.90;;;;;;5097661;28;20024;-66
2021/11/24 13:22:36;;;;;;;0.70;0.70;;;-1.90;99.90;;;;;;5113599;28;20024;-65
2021/11/24 13:25:17;;;;;;;0.82;0.82;;;-2.10;99.90;;;;;;5102845;28;20034;-66